Time;durP1;ratioP1;P1;durP2;ratioP2;P2;SDS_P1;SDS_P2;PMS_P1;PMS_P2;Temp;Humidity;BMP_temperature;BMP_pressure;BME280_temperature;BME280_humidity;BME280_pressure;Samples;Min_cycle;Max_cycle;Signal;HPM_P1;HPM_P2
2022/08/06 00:02:24;;;;;;;;;;;;;;;;;;;;;
2022/08/06 02:14:52;;;;;;;;;;;;;;;;;;;;;
2022/08/06 02:43:22;;;;;;;;;;;;;;;;;;;;;
2022/08/06 03:18:24;;;;;;;3.42;1.23;;;16.00;85.00;;;;;;5844563;24;20017;-92
2022/08/06 06:22:19;;;;;;;;;;;16.70;89.20;;;;;;6293836;22;20491;-83
2022/08/06 06:25:09;;;;;;;2.88;1.55;;;16.70;88.90;;;;;;6339162;22;19899;-83
2022/08/06 06:27:40;;;;;;;3.60;1.70;;;16.70;88.90;;;;;;6336533;22;20055;-84
2022/08/06 06:30:10;;;;;;;3.63;1.55;;;16.80;89.00;;;;;;6308273;22;20176;-84
2022/08/06 06:32:47;;;;;;;2.92;1.30;;;16.80;89.30;;;;;;6337238;22;20002;-84
2022/08/06 06:35:28;;;;;;;2.40;1.45;;;16.90;89.30;;;;;;6337134;22;20003;-84
2022/08/06 06:38:34;;;;;;;2.47;0.93;;;17.00;89.30;;;;;;6309890;22;20316;-84
2022/08/06 06:41:08;;;;;;;2.90;1.30;;;17.10;89.20;;;;;;6335454;22;19995;-84
2022/08/06 06:43:56;;;;;;;2.05;1.00;;;17.20;88.90;;;;;;6310122;22;20373;-84
2022/08/06 06:46:34;;;;;;;1.98;1.00;;;17.20;88.70;;;;;;6307734;22;20444;-83
2022/08/06 06:49:29;;;;;;;2.15;0.98;;;17.30;88.50;;;;;;6307034;22;20006;-83
2022/08/06 06:52:05;;;;;;;4.60;1.00;;;17.40;87.80;;;;;;6277034;22;20003;-83
2022/08/06 06:54:38;;;;;;;2.22;0.82;;;17.40;87.50;;;;;;6309216;22;20459;-83
2022/08/06 06:57:06;;;;;;;2.38;0.80;;;17.50;87.10;;;;;;6309530;22;19995;-83
2022/08/06 06:59:38;;;;;;;3.55;1.00;;;17.50;86.90;;;;;;6311158;22;20002;-83
2022/08/06 07:02:06;;;;;;;3.03;1.17;;;17.50;86.70;;;;;;6309599;22;20015;-84
2022/08/06 07:04:35;;;;;;;3.22;1.00;;;17.60;86.80;;;;;;6310677;22;20009;-85
2022/08/06 12:38:56;;;;;;;;;;;;;;;;;;;;;
2022/08/06 12:42:15;;;;;;;;;;;;;;;;;;;;;
2022/08/06 12:52:11;;;;;;;1.67;0.60;;;22.80;60.50;;;;;;6251185;22;20007;-89
2022/08/06 12:54:37;;;;;;;1.95;0.70;;;22.80;60.30;;;;;;6240993;22;20012;-88
2022/08/06 12:57:26;;;;;;;0.80;0.52;;;22.90;60.20;;;;;;6250784;22;20008;-90
2022/08/06 13:00:09;;;;;;;1.10;0.53;;;22.80;60.20;;;;;;6243927;22;20004;-89
2022/08/06 13:02:53;;;;;;;;;;;;;;;;;;;;;
2022/08/06 13:05:45;;;;;;;1.05;0.52;;;22.70;59.50;;;;;;6279815;22;20079;-89
2022/08/06 13:08:39;;;;;;;1.45;0.70;;;22.70;59.10;;;;;;6227899;22;20010;-88
2022/08/06 13:11:24;;;;;;;;;;;;;;;;;;;;;
2022/08/06 13:17:08;;;;;;;;;;;;;;;;;;;;;
2022/08/06 13:20:15;;;;;;;0.63;0.57;;;22.90;59.50;;;;;;6279058;22;20505;-88
2022/08/06 13:23:20;;;;;;;;;;;;;;;;;;;;;
2022/08/06 13:26:05;;;;;;;0.47;0.40;;;23.00;60.10;;;;;;6269827;22;20078;-89
2022/08/06 13:32:43;;;;;;;;;;;;;;;;;;;;;
2022/08/06 13:39:35;;;;;;;;;;;;;;;;;;;;;
2022/08/06 13:45:55;;;;;;;;;;;;;;;;;;;;;
2022/08/06 13:49:02;;;;;;;;;;;;;;;;;;;;;
2022/08/06 13:54:53;;;;;;;;;;;;;;;;;;;;;
2022/08/06 13:57:45;;;;;;;;;;;;;;;;;;;;;
2022/08/06 14:00:47;;;;;;;;;;;;;;;;;;;;;
2022/08/06 14:03:37;;;;;;;;;;;;;;;;;;;;;
2022/08/06 14:06:42;;;;;;;1.38;0.57;;;23.30;58.90;;;;;;6246597;23;20067;-87
2022/08/06 14:09:13;;;;;;;1.65;0.80;;;23.40;58.60;;;;;;6225127;23;20311;-89
2022/08/06 14:12:07;;;;;;;;;;;;;;;;;;;;;
2022/08/06 14:14:43;;;;;;;1.80;0.88;;;23.40;57.70;;;;;;6206752;23;20091;-89
2022/08/06 14:17:29;;;;;;;0.98;0.50;;;23.40;57.60;;;;;;6222002;23;20027;-88
2022/08/06 14:23:14;;;;;;;;;;;;;;;;;;;;;
2022/08/06 14:26:07;;;;;;;1.10;0.50;;;23.50;57.10;;;;;;6247029;23;20087;-88
2022/08/06 14:29:03;;;;;;;;;;;;;;;;;;;;;
2022/08/06 14:31:52;;;;;;;2.15;1.10;;;23.70;56.90;;;;;;6223470;23;20071;-89
2022/08/06 14:38:14;;;;;;;;;;;;;;;;;;;;;
2022/08/06 14:50:10;;;;;;;;;;;;;;;;;;;;;
2022/08/06 14:53:33;;;;;;;1.20;0.63;;;23.60;55.90;;;;;;6247589;23;20083;-89
2022/08/06 14:56:15;;;;;;;1.10;0.60;;;23.60;56.20;;;;;;6201328;23;20027;-88
2022/08/06 15:01:42;;;;;;;1.35;0.90;;;23.60;56.00;;;;;;6233404;23;20038;-88
2022/08/06 15:04:39;;;;;;;2.03;0.95;;;23.60;55.70;;;;;;6227837;23;20028;-88
2022/08/06 15:17:55;;;;;;;0.80;0.73;;;23.60;56.90;;;;;;6262412;22;20015;-89
2022/08/06 15:20:41;;;;;;;1.00;0.70;;;23.50;56.80;;;;;;6222510;23;20001;-88
2022/08/06 15:26:41;;;;;;;3.10;2.25;;;23.70;57.90;;;;;;6250015;23;20062;-88
2022/08/06 15:32:51;;;;;;;;;;;;;;;;;;;;;
2022/08/06 15:39:32;;;;;;;3.50;1.77;;;23.70;56.80;;;;;;6000243;23;20336;-90
2022/08/06 15:46:49;;;;;;;;;;;;;;;;;;;;;
2022/08/06 15:49:38;;;;;;;;;;;;;;;;;;;;;
2022/08/06 15:56:33;;;;;;;;;;;;;;;;;;;;;
2022/08/06 15:59:00;;;;;;;;;;;;;;;;;;;;;
2022/08/06 16:02:21;;;;;;;;;;;;;;;;;;;;;
2022/08/06 16:05:23;;;;;;;1.35;1.20;;;23.50;58.30;;;;;;6305575;22;20070;-92
2022/08/06 16:08:39;;;;;;;;;;;;;;;;;;;;;
2022/08/06 16:18:32;;;;;;;1.20;1.10;;;23.50;57.00;;;;;;6207130;23;20027;-90
2022/08/06 16:24:52;;;;;;;;;;;;;;;;;;;;;
2022/08/06 16:31:23;;;;;;;3.53;1.80;;;23.30;56.40;;;;;;6199231;23;20004;-90
2022/08/06 16:38:20;;;;;;;;;;;;;;;;;;;;;
2022/08/06 16:44:56;;;;;;;4.32;3.08;;;23.20;57.10;;;;;;6181882;23;20009;-89
2022/08/06 16:47:28;;;;;;;1.80;1.70;;;23.20;57.00;;;;;;6186561;23;20096;-89
2022/08/06 16:50:15;;;;;;;;;;;;;;;;;;;;;
2022/08/06 16:53:22;;;;;;;3.67;2.40;;;23.20;56.60;;;;;;6194371;23;20072;-88
2022/08/06 16:56:42;;;;;;;;;;;;;;;;;;;;;
2022/08/06 16:59:21;;;;;;;4.90;3.17;;;23.10;56.50;;;;;;6309282;22;20109;-88
2022/08/06 17:02:36;;;;;;;4.03;2.92;;;23.20;56.60;;;;;;6281887;22;20362;-84
2022/08/06 17:04:33;;;;;;;3.28;2.58;;;23.10;56.70;;;;;;6306073;22;20023;-83
2022/08/06 17:06:59;;;;;;;4.05;1.85;;;23.20;56.80;;;;;;6251556;22;20436;-86
2022/08/06 17:09:29;;;;;;;4.57;2.15;;;23.10;56.30;;;;;;6276537;22;20000;-84
2022/08/06 17:11:55;;;;;;;3.47;2.53;;;23.10;55.80;;;;;;6280081;22;19995;-84
2022/08/06 17:14:23;;;;;;;5.07;3.70;;;23.00;56.00;;;;;;6307515;22;20014;-88
2022/08/06 17:16:48;;;;;;;5.93;4.43;;;23.00;56.20;;;;;;6255106;22;20012;-85
2022/08/06 17:19:18;;;;;;;4.40;3.30;;;23.10;56.70;;;;;;6280168;22;20372;-84
2022/08/06 17:21:44;;;;;;;3.13;2.40;;;23.10;56.80;;;;;;6280711;22;20030;-84
2022/08/06 17:24:10;;;;;;;2.58;2.00;;;23.20;56.80;;;;;;6279162;22;20007;-84
2022/08/06 17:26:38;;;;;;;2.17;1.55;;;23.10;57.20;;;;;;6255552;22;20007;-84
2022/08/06 17:29:06;;;;;;;1.92;1.55;;;23.10;56.90;;;;;;6280260;22;20003;-84
2022/08/06 17:31:32;;;;;;;2.20;1.88;;;23.20;56.90;;;;;;6280980;22;20007;-84
2022/08/06 17:33:58;;;;;;;2.22;1.60;;;23.10;56.90;;;;;;6256385;22;20368;-85
2022/08/06 17:36:31;;;;;;;2.25;1.67;;;23.20;58.00;;;;;;6279380;22;20044;-84
2022/08/06 17:38:59;;;;;;;2.38;1.35;;;23.20;57.80;;;;;;6308492;22;20006;-85
2022/08/06 17:41:25;;;;;;;2.35;1.35;;;23.20;57.80;;;;;;6280530;22;20007;-85
2022/08/06 17:43:50;;;;;;;1.88;1.33;;;23.30;58.10;;;;;;6280603;22;20094;-84
2022/08/06 17:46:18;;;;;;;3.92;1.63;;;23.20;57.30;;;;;;6279231;22;19999;-85
2022/08/06 17:48:46;;;;;;;1.83;1.33;;;23.10;57.20;;;;;;6308114;22;19995;-84
2022/08/06 17:51:12;;;;;;;1.77;1.30;;;23.10;57.40;;;;;;6281944;22;20085;-84
2022/08/06 17:53:38;;;;;;;2.28;1.20;;;23.10;57.30;;;;;;6283321;22;20368;-85
2022/08/06 17:56:06;;;;;;;1.70;1.02;;;23.10;57.00;;;;;;6259323;22;20429;-85
2022/08/06 17:58:33;;;;;;;1.05;0.90;;;23.00;56.70;;;;;;6300785;22;19994;-87
2022/08/06 18:00:59;;;;;;;2.13;1.00;;;22.90;56.60;;;;;;6307160;22;19999;-88
2022/08/06 18:03:25;;;;;;;2.67;1.00;;;22.90;56.60;;;;;;6301388;22;19999;-85
2022/08/06 18:06:01;;;;;;;;;;;;;;;;;;;;;
2022/08/06 18:08:27;;;;;;;1.33;0.80;;;22.80;56.50;;;;;;6308562;22;20082;-85
2022/08/06 18:10:54;;;;;;;1.20;0.90;;;22.80;56.30;;;;;;6280098;22;20399;-85
2022/08/06 18:13:29;;;;;;;1.30;0.80;;;22.80;56.40;;;;;;6279095;22;19999;-85
2022/08/06 18:16:02;;;;;;;1.83;0.98;;;22.70;56.50;;;;;;6308069;22;20057;-84
2022/08/06 18:18:28;;;;;;;1.70;0.82;;;22.70;56.30;;;;;;6307031;22;19999;-85
2022/08/06 18:20:54;;;;;;;1.52;0.80;;;22.70;57.10;;;;;;6280078;22;19999;-85
2022/08/06 18:23:20;;;;;;;0.95;0.70;;;22.70;56.70;;;;;;6280603;22;20010;-85
